createdAt,value
2022-12-06T00:00:10.189Z,1042.1550
2022-12-06T00:00:21.249Z,1042.9690
2022-12-06T00:00:32.312Z,1045.4189
2022-12-06T00:00:43.391Z,1041.3420
2022-12-06T00:00:54.471Z,1042.9690
2022-12-06T00:01:05.540Z,1034.8840
2022-12-06T00:01:16.613Z,1039.7200
2022-12-06T00:01:27.682Z,1042.9690
2022-12-06T00:01:38.858Z,1038.1030
2022-12-06T00:01:49.992Z,1041.3420
2022-12-06T00:02:01.137Z,1045.4189
2022-12-06T00:02:12.311Z,1039.7200
2022-12-06T00:02:23.523Z,1038.1030
2022-12-06T00:02:34.798Z,1038.9110
2022-12-06T00:02:46.118Z,1037.2960
2022-12-06T00:02:57.284Z,1041.3420
2022-12-06T00:03:08.423Z,1032.4830
2022-12-06T00:03:19.562Z,1036.4910
2022-12-06T00:03:30.700Z,1038.1030
2022-12-06T00:03:41.941Z,1038.1030
2022-12-06T00:03:53.028Z,1038.1030
2022-12-06T00:04:04.098Z,1035.6870
2022-12-06T00:04:15.159Z,1036.4910
2022-12-06T00:04:26.259Z,1038.1030
2022-12-06T00:04:37.338Z,1033.2820
2022-12-06T00:04:48.411Z,1041.3420
2022-12-06T00:04:59.482Z,1038.1030
2022-12-06T00:05:10.541Z,1038.1030
2022-12-06T00:05:21.613Z,1037.2960
2022-12-06T00:05:32.701Z,1034.8840
2022-12-06T00:05:46.398Z,1033.2820
2022-12-06T00:05:57.722Z,1034.8840
2022-12-06T00:06:08.809Z,1035.6870
2022-12-06T00:06:19.879Z,1036.4910
2022-12-06T00:06:30.939Z,1034.8840
2022-12-06T00:06:42.001Z,1038.1030
2022-12-06T00:06:53.068Z,1034.8840
2022-12-06T00:07:04.128Z,1035.6870
2022-12-06T00:07:15.200Z,1037.2960
2022-12-06T00:07:26.263Z,1036.4910
2022-12-06T00:07:37.372Z,1034.8840
2022-12-06T00:07:48.456Z,1030.8879
2022-12-06T00:07:59.521Z,1031.6851
2022-12-06T00:08:10.711Z,1037.2960
2022-12-06T00:08:21.868Z,1033.2820
2022-12-06T00:08:32.900Z,1031.6851
2022-12-06T00:08:44.025Z,1034.8840
2022-12-06T00:08:55.120Z,1035.6870
2022-12-06T00:09:06.178Z,1032.4830
2022-12-06T00:09:17.244Z,1034.8840
2022-12-06T00:09:28.383Z,1039.7200
2022-12-06T00:09:39.412Z,1038.1030
2022-12-06T00:09:50.480Z,1031.6851
2022-12-06T00:10:01.918Z,1038.1030
2022-12-06T00:10:13.389Z,1030.8879
2022-12-06T00:10:24.428Z,1035.6870
2022-12-06T00:10:35.479Z,1039.7200
2022-12-06T00:10:46.549Z,1033.2820
2022-12-06T00:10:57.619Z,1038.9110
2022-12-06T00:11:08.698Z,1034.8840
2022-12-06T00:11:19.762Z,1036.4910
2022-12-06T00:11:30.838Z,1034.8840
2022-12-06T00:11:41.906Z,1039.7200
2022-12-06T00:11:52.979Z,1038.9110
2022-12-06T00:12:04.053Z,1038.1030
2022-12-06T00:12:15.130Z,1034.0820
2022-12-06T00:12:26.201Z,1042.1550
2022-12-06T00:12:37.252Z,1041.3420
2022-12-06T00:12:48.339Z,1042.9690
2022-12-06T00:12:59.400Z,1044.6010
2022-12-06T00:13:10.468Z,1042.9690
2022-12-06T00:13:21.513Z,1042.9690
2022-12-06T00:13:32.602Z,1040.5300
2022-12-06T00:13:43.631Z,1045.4189
2022-12-06T00:13:54.720Z,1046.2380
2022-12-06T00:14:05.772Z,1042.9690
2022-12-06T00:14:16.838Z,1043.7841
2022-12-06T00:14:27.905Z,1052.8390
2022-12-06T00:14:39.021Z,1047.8810
2022-12-06T00:14:50.154Z,1047.8810
2022-12-06T00:15:01.278Z,1044.6010
2022-12-06T00:15:12.351Z,1045.4189
2022-12-06T00:15:23.429Z,1049.5280
2022-12-06T00:15:34.518Z,1049.5280
2022-12-06T00:15:45.588Z,1046.2380
2022-12-06T00:15:56.687Z,1047.8810
2022-12-06T00:16:07.805Z,1050.3540
2022-12-06T00:16:18.907Z,1047.8810
2022-12-06T00:16:30.108Z,1046.2380
2022-12-06T00:16:41.251Z,1056.1710
2022-12-06T00:16:52.490Z,1049.5280
2022-12-06T00:17:03.568Z,1051.1810
2022-12-06T00:17:14.618Z,1052.8390
2022-12-06T00:17:25.672Z,1048.7040
2022-12-06T00:17:41.612Z,1052.8390
2022-12-06T00:17:53.729Z,1042.9690
2022-12-06T00:18:04.802Z,1044.6010
2022-12-06T00:18:15.871Z,1051.1810
2022-12-06T00:18:26.951Z,1051.1810
2022-12-06T00:18:38.037Z,1046.2380
2022-12-06T00:18:49.115Z,1055.3361
2022-12-06T00:19:00.182Z,1049.5280
2022-12-06T00:19:11.252Z,1051.1810
2022-12-06T00:19:22.308Z,1052.0090
2022-12-06T00:19:33.392Z,1052.8390
2022-12-06T00:19:44.528Z,1057.8450
2022-12-06T00:19:55.600Z,1062.0530
2022-12-06T00:20:06.660Z,1059.5240
2022-12-06T00:20:17.701Z,1057.8450
2022-12-06T00:20:28.771Z,1059.5240
2022-12-06T00:20:39.870Z,1057.8450
2022-12-06T00:20:50.982Z,1057.8450
2022-12-06T00:21:02.030Z,1061.2080
2022-12-06T00:21:13.112Z,1058.6840
2022-12-06T00:21:24.202Z,1061.2080
2022-12-06T00:21:35.261Z,1062.0530
2022-12-06T00:21:46.318Z,1062.8979
2022-12-06T00:21:57.388Z,1064.5930
2022-12-06T00:22:08.458Z,1063.7450
2022-12-06T00:22:19.518Z,1064.5930
2022-12-06T00:22:30.588Z,1069.7120
2022-12-06T00:22:41.650Z,1066.2939
2022-12-06T00:22:52.702Z,1065.4430
2022-12-06T00:23:03.762Z,1068.0000
2022-12-06T00:23:14.833Z,1071.4290
2022-12-06T00:23:31.426Z,1070.5690
2022-12-06T00:23:42.893Z,1057.0070
2022-12-06T00:23:53.961Z,1065.4430
2022-12-06T00:24:05.020Z,1072.2889
2022-12-06T00:24:16.060Z,1062.8979
2022-12-06T00:24:27.110Z,1068.0000
2022-12-06T00:24:38.192Z,1073.1510
2022-12-06T00:24:49.327Z,1068.0000
2022-12-06T00:25:00.387Z,1070.5690
2022-12-06T00:25:11.450Z,1073.1510
2022-12-06T00:25:22.725Z,1074.8790
2022-12-06T00:25:33.805Z,1073.1510
2022-12-06T00:25:44.861Z,1068.0000
2022-12-06T00:25:55.945Z,1077.4821
2022-12-06T00:26:07.018Z,1075.7450
2022-12-06T00:26:18.083Z,1075.7450
2022-12-06T00:26:29.189Z,1081.8480
2022-12-06T00:26:40.290Z,1078.3521
2022-12-06T00:26:51.418Z,1080.0970
2022-12-06T00:27:02.517Z,1081.8480
2022-12-06T00:27:13.582Z,1081.8480
2022-12-06T00:27:24.638Z,1078.3521
2022-12-06T00:27:35.712Z,1080.0970
2022-12-06T00:27:46.779Z,1077.4821
2022-12-06T00:27:57.844Z,1081.8480
2022-12-06T00:28:08.935Z,1081.8480
2022-12-06T00:28:20.003Z,1086.2490
2022-12-06T00:28:31.063Z,1085.3660
2022-12-06T00:28:42.192Z,1080.9720
2022-12-06T00:28:53.278Z,1085.3660
2022-12-06T00:29:04.344Z,1086.2490
2022-12-06T00:29:15.412Z,1083.6040
2022-12-06T00:29:26.492Z,1083.6040
2022-12-06T00:29:37.578Z,1094.2620
2022-12-06T00:29:48.645Z,1085.3660
2022-12-06T00:29:59.975Z,1090.6860
2022-12-06T00:30:11.467Z,1089.7960
2022-12-06T00:30:22.523Z,1087.1340
2022-12-06T00:30:33.628Z,1088.9070
2022-12-06T00:30:44.663Z,1091.5780
2022-12-06T00:30:55.713Z,1092.4709
2022-12-06T00:31:06.779Z,1095.1600
2022-12-06T00:31:17.891Z,1092.4709
2022-12-06T00:31:29.067Z,1096.9600
2022-12-06T00:31:40.269Z,1095.1600
2022-12-06T00:31:51.446Z,1094.2620
2022-12-06T00:32:02.970Z,1094.2620
2022-12-06T00:32:19.214Z,1094.2620
2022-12-06T00:32:31.072Z,1092.4709
2022-12-06T00:32:42.131Z,1090.6860
2022-12-06T00:32:53.208Z,1095.1600
2022-12-06T00:33:04.273Z,1092.4709
2022-12-06T00:33:15.357Z,1096.0590
2022-12-06T00:33:26.429Z,1096.0590
2022-12-06T00:33:37.565Z,1096.0590
2022-12-06T00:33:48.634Z,1094.2620
2022-12-06T00:33:59.692Z,1098.7650
2022-12-06T00:34:10.780Z,1100.5770
2022-12-06T00:34:21.876Z,1096.0590
2022-12-06T00:34:32.941Z,1096.0590
2022-12-06T00:34:44.001Z,1092.4709
2022-12-06T00:34:55.082Z,1100.5770
2022-12-06T00:35:06.188Z,1099.6710
2022-12-06T00:35:17.261Z,1099.6710
2022-12-06T00:35:28.348Z,1097.8621
2022-12-06T00:35:39.431Z,1107.8840
2022-12-06T00:35:50.499Z,1097.8621
2022-12-06T00:36:01.580Z,1098.7650
2022-12-06T00:36:12.608Z,1105.1320
2022-12-06T00:36:23.668Z,1107.8840
2022-12-06T00:36:34.742Z,1098.7650
2022-12-06T00:36:45.813Z,1101.4850
2022-12-06T00:36:56.892Z,1102.3950
2022-12-06T00:37:07.972Z,1106.0480
2022-12-06T00:37:19.058Z,1101.4850
2022-12-06T00:37:30.119Z,1103.3060
2022-12-06T00:37:41.190Z,1099.6710
2022-12-06T00:37:52.259Z,1103.3060
2022-12-06T00:38:03.292Z,1109.7260
2022-12-06T00:38:15.038Z,1108.8040
2022-12-06T00:38:26.116Z,1108.8040
2022-12-06T00:38:37.183Z,1104.2180
2022-12-06T00:38:48.258Z,1106.9650
2022-12-06T00:38:59.319Z,1106.0480
2022-12-06T00:39:10.390Z,1107.8840
2022-12-06T00:39:21.462Z,1108.8040
2022-12-06T00:39:32.546Z,1107.8840
2022-12-06T00:39:43.618Z,1106.9650
2022-12-06T00:39:54.701Z,1109.7260
2022-12-06T00:40:05.759Z,1109.7260
2022-12-06T00:40:16.868Z,1110.6490
2022-12-06T00:40:27.950Z,1105.1320
2022-12-06T00:40:39.023Z,1111.5740
2022-12-06T00:40:50.098Z,1106.9650
2022-12-06T00:41:01.174Z,1113.4280
2022-12-06T00:41:12.329Z,1114.3571
2022-12-06T00:41:23.393Z,1106.9650
2022-12-06T00:41:34.473Z,1106.9650
2022-12-06T00:41:45.541Z,1117.1550
2022-12-06T00:41:56.596Z,1115.2880
2022-12-06T00:42:07.662Z,1112.5000
2022-12-06T00:42:18.741Z,1110.6490
2022-12-06T00:42:29.813Z,1111.5740
2022-12-06T00:42:40.879Z,1113.4280
2022-12-06T00:42:51.959Z,1114.3571
2022-12-06T00:43:03.012Z,1105.1320
2022-12-06T00:43:14.072Z,1108.8040
2022-12-06T00:43:25.157Z,1113.4280
2022-12-06T00:43:36.219Z,1112.5000
2022-12-06T00:43:47.294Z,1113.4280
2022-12-06T00:43:58.368Z,1116.2209
2022-12-06T00:44:09.431Z,1113.4280
2022-12-06T00:44:20.501Z,1115.2880
2022-12-06T00:44:31.589Z,1117.1550
2022-12-06T00:44:42.660Z,1114.3571
2022-12-06T00:44:53.730Z,1116.2209
2022-12-06T00:45:04.811Z,1118.0900
2022-12-06T00:45:15.879Z,1114.3571
2022-12-06T00:45:26.988Z,1118.0900
2022-12-06T00:45:38.094Z,1117.1550
2022-12-06T00:45:49.283Z,1119.0280
2022-12-06T00:46:00.454Z,1113.4280
2022-12-06T00:46:11.630Z,1118.0900
2022-12-06T00:46:22.861Z,1119.9659
2022-12-06T00:46:33.939Z,1118.0900
2022-12-06T00:46:45.007Z,1125.6320
2022-12-06T00:46:56.165Z,1123.7371
2022-12-06T00:47:07.239Z,1121.8490
2022-12-06T00:47:18.309Z,1122.7920
2022-12-06T00:47:29.399Z,1123.7371
2022-12-06T00:47:40.448Z,1118.0900
2022-12-06T00:47:51.513Z,1123.7371
2022-12-06T00:48:02.601Z,1121.8490
2022-12-06T00:48:13.649Z,1121.8490
2022-12-06T00:48:24.708Z,1124.6840
2022-12-06T00:48:35.801Z,1122.7920
2022-12-06T00:48:46.862Z,1123.7371
2022-12-06T00:48:57.942Z,1127.5341
2022-12-06T00:49:09.024Z,1117.1550
2022-12-06T00:49:20.105Z,1123.7371
2022-12-06T00:49:31.181Z,1123.7371
2022-12-06T00:49:42.243Z,1125.6320
2022-12-06T00:49:53.318Z,1125.6320
2022-12-06T00:50:04.383Z,1131.3560
2022-12-06T00:50:15.422Z,1128.4871
2022-12-06T00:50:26.468Z,1119.0280
2022-12-06T00:50:37.573Z,1119.9659
2022-12-06T00:50:48.640Z,1123.7371
2022-12-06T00:50:59.701Z,1126.5820
2022-12-06T00:51:10.796Z,1129.4420
2022-12-06T00:51:21.828Z,1130.3979
2022-12-06T00:51:32.903Z,1131.3560
2022-12-06T00:51:43.960Z,1127.5341
2022-12-06T00:51:55.031Z,1123.7371
2022-12-06T00:52:06.104Z,1130.3979
2022-12-06T00:52:17.159Z,1129.4420
2022-12-06T00:52:28.214Z,1131.3560
2022-12-06T00:52:39.261Z,1134.2400
2022-12-06T00:52:50.340Z,1134.2400
2022-12-06T00:53:01.413Z,1136.1700
2022-12-06T00:53:12.479Z,1126.5820
2022-12-06T00:53:23.553Z,1126.5820
2022-12-06T00:53:34.618Z,1132.3160
2022-12-06T00:53:45.661Z,1131.3560
2022-12-06T00:53:56.745Z,1132.3160
2022-12-06T00:54:07.812Z,1136.1700
2022-12-06T00:54:18.896Z,1128.4871
2022-12-06T00:54:29.961Z,1137.1379
2022-12-06T00:54:41.030Z,1134.2400
2022-12-06T00:54:52.082Z,1135.2040
2022-12-06T00:55:03.159Z,1130.3979
2022-12-06T00:55:14.224Z,1139.0790
2022-12-06T00:55:25.295Z,1131.3560
2022-12-06T00:55:36.398Z,1131.3560
2022-12-06T00:55:47.493Z,1137.1379
2022-12-06T00:55:58.559Z,1135.2040
2022-12-06T00:56:09.629Z,1134.2400
2022-12-06T00:56:20.699Z,1135.2040
2022-12-06T00:56:31.772Z,1136.1700
2022-12-06T00:56:42.850Z,1137.1379
2022-12-06T00:56:53.933Z,1130.3979
2022-12-06T00:57:04.989Z,1132.3160
2022-12-06T00:57:16.062Z,1135.2040
2022-12-06T00:57:27.139Z,1141.0260
2022-12-06T00:57:38.226Z,1140.0510
2022-12-06T00:57:49.302Z,1142.0020
2022-12-06T00:58:00.383Z,1134.2400
2022-12-06T00:58:11.444Z,1139.0790
2022-12-06T00:58:22.507Z,1140.0510
2022-12-06T00:58:33.559Z,1141.0260
2022-12-06T00:58:44.626Z,1141.0260
2022-12-06T00:58:55.692Z,1139.0790
2022-12-06T00:59:06.785Z,1133.2770
2022-12-06T00:59:17.849Z,1138.1071
2022-12-06T00:59:28.918Z,1135.2040
2022-12-06T00:59:39.965Z,1144.9399
2022-12-06T00:59:51.038Z,1137.1379
2022-12-06T01:00:02.427Z,1142.0020
2022-12-06T01:00:13.709Z,1142.0020
2022-12-06T01:00:24.765Z,1139.0790
2022-12-06T01:00:35.849Z,1141.0260
2022-12-06T01:00:46.926Z,1143.9590
2022-12-06T01:00:58.100Z,1142.9790
2022-12-06T01:01:09.266Z,1146.9070
2022-12-06T01:01:20.463Z,1142.9790
2022-12-06T01:01:31.626Z,1145.9230
2022-12-06T01:01:42.794Z,1142.9790
2022-12-06T01:01:53.870Z,1139.0790
2022-12-06T01:02:04.959Z,1148.8810
2022-12-06T01:02:16.030Z,1143.9590
2022-12-06T01:02:27.100Z,1142.0020
2022-12-06T01:02:38.162Z,1146.9070
2022-12-06T01:02:49.313Z,1140.0510
2022-12-06T01:03:00.416Z,1147.8929
2022-12-06T01:03:11.570Z,1144.9399
2022-12-06T01:03:22.714Z,1141.0260
2022-12-06T01:03:35.323Z,1149.8710
2022-12-06T01:03:46.957Z,1145.9230
2022-12-06T01:03:58.068Z,1139.0790
2022-12-06T01:04:09.129Z,1142.0020
2022-12-06T01:04:20.190Z,1144.9399
2022-12-06T01:04:31.269Z,1146.9070
2022-12-06T01:04:42.339Z,1148.8810
2022-12-06T01:04:53.413Z,1142.9790
2022-12-06T01:05:04.499Z,1150.8621
2022-12-06T01:05:15.588Z,1152.8500
2022-12-06T01:05:27.548Z,1144.9399
2022-12-06T01:05:38.601Z,1145.9230
2022-12-06T01:05:49.760Z,1149.8710
2022-12-06T01:06:00.878Z,1147.8929
2022-12-06T01:06:11.951Z,1144.9399
2022-12-06T01:06:23.237Z,1142.9790
2022-12-06T01:06:34.298Z,1149.8710
2022-12-06T01:06:45.341Z,1142.9790
2022-12-06T01:06:56.402Z,1146.9070
2022-12-06T01:07:07.483Z,1151.8550
2022-12-06T01:07:18.553Z,1146.9070
2022-12-06T01:07:29.625Z,1145.9230
2022-12-06T01:07:40.766Z,1146.9070
2022-12-06T01:07:51.913Z,1150.8621
2022-12-06T01:08:03.033Z,1144.9399
2022-12-06T01:08:14.185Z,1153.8459
2022-12-06T01:08:25.324Z,1156.8459
2022-12-06T01:08:36.381Z,1149.8710
2022-12-06T01:08:47.468Z,1155.8440
2022-12-06T01:08:58.534Z,1150.8621
2022-12-06T01:09:09.597Z,1148.8810
2022-12-06T01:09:20.683Z,1154.8440
2022-12-06T01:09:31.739Z,1148.8810
2022-12-06T01:09:42.808Z,1152.8500
2022-12-06T01:09:53.888Z,1152.8500
2022-12-06T01:10:04.949Z,1154.8440
2022-12-06T01:10:16.009Z,1154.8440
2022-12-06T01:10:27.069Z,1151.8550
2022-12-06T01:10:38.122Z,1154.8440
2022-12-06T01:10:49.192Z,1154.8440
2022-12-06T01:11:00.277Z,1153.8459
2022-12-06T01:11:11.413Z,1151.8550
2022-12-06T01:11:22.477Z,1151.8550
2022-12-06T01:11:33.544Z,1156.8459
2022-12-06T01:11:44.608Z,1156.8459
2022-12-06T01:11:55.673Z,1151.8550
2022-12-06T01:12:06.749Z,1154.8440
2022-12-06T01:12:17.828Z,1155.8440
2022-12-06T01:12:28.919Z,1158.8540
2022-12-06T01:12:39.971Z,1154.8440
2022-12-06T01:12:51.032Z,1154.8440
2022-12-06T01:13:02.098Z,1162.8920
2022-12-06T01:13:13.172Z,1155.8440
2022-12-06T01:13:24.253Z,1159.8610
2022-12-06T01:13:35.339Z,1157.8490
2022-12-06T01:13:46.389Z,1157.8490
2022-12-06T01:13:57.449Z,1161.8800
2022-12-06T01:14:08.518Z,1160.8700
2022-12-06T01:14:19.582Z,1158.8540
2022-12-06T01:14:30.632Z,1155.8440
2022-12-06T01:14:41.719Z,1158.8540
2022-12-06T01:14:52.764Z,1160.8700
2022-12-06T01:15:03.839Z,1157.8490
2022-12-06T01:15:14.902Z,1172.0811
2022-12-06T01:15:25.945Z,1162.8920
2022-12-06T01:15:37.008Z,1158.8540
2022-12-06T01:15:48.059Z,1153.8459
2022-12-06T01:15:59.128Z,1165.9390
2022-12-06T01:16:10.253Z,1158.8540
2022-12-06T01:16:21.560Z,1163.9060
2022-12-06T01:16:32.765Z,1157.8490
2022-12-06T01:16:43.910Z,1163.9060
2022-12-06T01:16:55.022Z,1162.8920
2022-12-06T01:17:06.070Z,1157.8490
2022-12-06T01:17:17.120Z,1163.9060
2022-12-06T01:17:28.193Z,1164.9210
2022-12-06T01:17:39.291Z,1162.8920
2022-12-06T01:17:50.359Z,1159.8610
2022-12-06T01:18:01.431Z,1167.9790
2022-12-06T01:18:12.503Z,1164.9210
2022-12-06T01:18:23.581Z,1163.9060
2022-12-06T01:18:34.648Z,1166.9580
2022-12-06T01:18:45.710Z,1166.9580
2022-12-06T01:18:56.782Z,1167.9790
2022-12-06T01:19:07.824Z,1165.9390
2022-12-06T01:19:18.902Z,1164.9210
2022-12-06T01:19:29.951Z,1164.9210
2022-12-06T01:19:41.018Z,1164.9210
2022-12-06T01:19:52.104Z,1164.9210
2022-12-06T01:20:03.153Z,1162.8920
2022-12-06T01:20:14.210Z,1166.9580
2022-12-06T01:20:25.292Z,1167.9790
2022-12-06T01:20:36.343Z,1161.8800
2022-12-06T01:20:47.419Z,1165.9390
2022-12-06T01:20:58.461Z,1165.9390
2022-12-06T01:21:09.539Z,1171.0530
2022-12-06T01:21:20.608Z,1169.0020
2022-12-06T01:21:31.737Z,1169.0020
2022-12-06T01:21:42.793Z,1166.9580
2022-12-06T01:21:53.871Z,1170.0260
2022-12-06T01:22:04.939Z,1160.8700
2022-12-06T01:22:16.020Z,1167.9790
2022-12-06T01:22:27.103Z,1175.1760
2022-12-06T01:22:38.172Z,1169.0020
2022-12-06T01:22:49.238Z,1169.0020
2022-12-06T01:23:00.300Z,1167.9790
2022-12-06T01:23:11.364Z,1175.1760
2022-12-06T01:23:22.452Z,1169.0020
2022-12-06T01:23:33.537Z,1175.1760
2022-12-06T01:23:44.598Z,1169.0020
2022-12-06T01:23:55.681Z,1169.0020
2022-12-06T01:24:06.757Z,1167.9790
2022-12-06T01:24:17.818Z,1175.1760
2022-12-06T01:24:28.880Z,1171.0530
2022-12-06T01:24:39.953Z,1166.9580
2022-12-06T01:24:51.020Z,1177.2490
2022-12-06T01:25:02.093Z,1167.9790
2022-12-06T01:25:13.174Z,1174.1420
2022-12-06T01:25:26.349Z,1175.1760
2022-12-06T01:25:38.209Z,1167.9790
2022-12-06T01:25:49.289Z,1171.0530
2022-12-06T01:26:00.360Z,1172.0811
2022-12-06T01:26:11.422Z,1165.9390
2022-12-06T01:26:22.478Z,1173.1110
2022-12-06T01:26:33.581Z,1173.1110
2022-12-06T01:26:44.670Z,1175.1760
2022-12-06T01:26:55.751Z,1167.9790
2022-12-06T01:27:06.822Z,1175.1760
2022-12-06T01:27:17.901Z,1177.2490
2022-12-06T01:27:28.962Z,1173.1110
2022-12-06T01:27:40.084Z,1173.1110
2022-12-06T01:27:51.158Z,1171.0530
2022-12-06T01:28:02.235Z,1175.1760
2022-12-06T01:28:13.290Z,1174.1420
2022-12-06T01:28:24.340Z,1165.9390
2022-12-06T01:28:35.419Z,1173.1110
2022-12-06T01:28:46.481Z,1171.0530
2022-12-06T01:28:57.559Z,1178.2880
2022-12-06T01:29:08.629Z,1173.1110
2022-12-06T01:29:19.680Z,1178.2880
2022-12-06T01:29:30.749Z,1181.4160
2022-12-06T01:29:41.819Z,1179.3290
2022-12-06T01:29:52.861Z,1178.2880
2022-12-06T01:30:03.939Z,1174.1420
2022-12-06T01:30:15.022Z,1177.2490
2022-12-06T01:30:26.175Z,1177.2490
2022-12-06T01:30:37.353Z,1180.3710
2022-12-06T01:30:48.499Z,1177.2490
2022-12-06T01:30:59.678Z,1183.5110
2022-12-06T01:31:10.834Z,1185.6130
2022-12-06T01:31:21.988Z,1183.5110
2022-12-06T01:31:38.265Z,1178.2880
2022-12-06T01:31:50.030Z,1169.0020
2022-12-06T01:32:01.085Z,1173.1110
2022-12-06T01:32:12.159Z,1174.1420
2022-12-06T01:32:23.236Z,1174.1420
2022-12-06T01:32:34.293Z,1173.1110
2022-12-06T01:32:45.352Z,1173.1110
2022-12-06T01:32:56.437Z,1172.0811
2022-12-06T01:33:07.510Z,1175.1760
2022-12-06T01:33:18.572Z,1177.2490
2022-12-06T01:33:29.629Z,1176.2111
2022-12-06T01:33:40.712Z,1174.1420
2022-12-06T01:33:51.779Z,1177.2490
2022-12-06T01:34:02.848Z,1175.1760
2022-12-06T01:34:13.930Z,1182.4620
2022-12-06T01:34:24.988Z,1176.2111
2022-12-06T01:34:36.029Z,1176.2111
2022-12-06T01:34:47.093Z,1177.2490
2022-12-06T01:34:58.133Z,1177.2490
2022-12-06T01:35:09.216Z,1180.3710
2022-12-06T01:35:20.279Z,1175.1760
2022-12-06T01:35:31.352Z,1172.0811
2022-12-06T01:35:42.420Z,1175.1760
2022-12-06T01:35:53.485Z,1173.1110
2022-12-06T01:36:04.553Z,1172.0811
2022-12-06T01:36:15.622Z,1177.2490
2022-12-06T01:36:26.688Z,1178.2880
2022-12-06T01:36:37.766Z,1174.1420
2022-12-06T01:36:48.808Z,1179.3290
2022-12-06T01:36:59.912Z,1177.2490
2022-12-06T01:37:11.567Z,1180.3710
2022-12-06T01:37:22.644Z,1172.0811
2022-12-06T01:37:33.734Z,1172.0811
2022-12-06T01:37:44.812Z,1178.2880
2022-12-06T01:37:55.883Z,1173.1110
2022-12-06T01:38:06.942Z,1181.4160
2022-12-06T01:38:18.021Z,1176.2111
2022-12-06T01:38:29.152Z,1179.3290
2022-12-06T01:38:40.224Z,1179.3290
2022-12-06T01:38:51.288Z,1179.3290
2022-12-06T01:39:02.367Z,1181.4160
2022-12-06T01:39:13.429Z,1177.2490
2022-12-06T01:39:24.482Z,1174.1420
2022-12-06T01:39:35.543Z,1177.2490
2022-12-06T01:39:46.615Z,1179.3290
2022-12-06T01:39:58.035Z,1169.0020
2022-12-06T01:40:09.521Z,1171.0530
2022-12-06T01:40:20.605Z,1176.2111
2022-12-06T01:40:31.651Z,1176.2111
2022-12-06T01:40:42.724Z,1180.3710
2022-12-06T01:40:53.813Z,1182.4620
2022-12-06T01:41:04.880Z,1177.2490
2022-12-06T01:41:15.941Z,1173.1110
2022-12-06T01:41:27.024Z,1179.3290
2022-12-06T01:41:38.084Z,1173.1110
2022-12-06T01:41:49.142Z,1179.3290
2022-12-06T01:42:00.245Z,1181.4160
2022-12-06T01:42:11.284Z,1182.4620
2022-12-06T01:42:22.343Z,1175.1760
2022-12-06T01:42:33.421Z,1173.1110
2022-12-06T01:42:44.481Z,1184.5610
2022-12-06T01:42:55.562Z,1174.1420
2022-12-06T01:43:06.631Z,1180.3710
2022-12-06T01:43:17.704Z,1174.1420
2022-12-06T01:43:28.772Z,1173.1110
2022-12-06T01:43:39.842Z,1175.1760
2022-12-06T01:43:50.922Z,1182.4620
2022-12-06T01:44:01.981Z,1175.1760
2022-12-06T01:44:15.937Z,1171.0530
2022-12-06T01:44:30.016Z,1170.0260
2022-12-06T01:44:41.052Z,1170.0260
2022-12-06T01:44:52.120Z,1165.9390
2022-12-06T01:45:03.201Z,1165.9390
2022-12-06T01:45:14.263Z,1171.0530
2022-12-06T01:45:25.321Z,1167.9790
2022-12-06T01:45:36.391Z,1171.0530
2022-12-06T01:45:47.572Z,1173.1110
2022-12-06T01:45:58.682Z,1172.0811
2022-12-06T01:46:09.768Z,1167.9790
2022-12-06T01:46:20.891Z,1172.0811
2022-12-06T01:46:32.116Z,1162.8920
2022-12-06T01:46:43.305Z,1169.0020
2022-12-06T01:46:54.340Z,1175.1760
2022-12-06T01:47:05.462Z,1173.1110
2022-12-06T01:47:16.540Z,1172.0811
2022-12-06T01:47:27.623Z,1169.0020
2022-12-06T01:47:38.677Z,1177.2490
2022-12-06T01:47:49.754Z,1166.9580
2022-12-06T01:48:00.834Z,1171.0530
2022-12-06T01:48:11.915Z,1175.1760
2022-12-06T01:48:23.021Z,1173.1110
2022-12-06T01:48:34.093Z,1173.1110
2022-12-06T01:48:45.170Z,1172.0811
2022-12-06T01:48:56.229Z,1173.1110
2022-12-06T01:49:07.301Z,1175.1760
2022-12-06T01:49:18.376Z,1169.0020
2022-12-06T01:49:29.444Z,1176.2111
2022-12-06T01:49:40.514Z,1175.1760
2022-12-06T01:49:51.570Z,1177.2490
2022-12-06T01:50:02.808Z,1173.1110
2022-12-06T01:50:14.293Z,1172.0811
2022-12-06T01:50:25.361Z,1173.1110
2022-12-06T01:50:36.431Z,1174.1420
2022-12-06T01:50:47.491Z,1178.2880
2022-12-06T01:50:58.581Z,1171.0530
2022-12-06T01:51:09.632Z,1177.2490
2022-12-06T01:51:20.694Z,1173.1110
2022-12-06T01:51:31.760Z,1176.2111
2022-12-06T01:51:42.849Z,1174.1420
2022-12-06T01:51:53.900Z,1172.0811
2022-12-06T01:52:04.971Z,1175.1760
2022-12-06T01:52:16.078Z,1166.9580
2022-12-06T01:52:27.353Z,1172.0811
2022-12-06T01:52:38.431Z,1177.2490
2022-12-06T01:52:49.481Z,1175.1760
2022-12-06T01:53:00.541Z,1176.2111
2022-12-06T01:53:11.581Z,1175.1760
2022-12-06T01:53:25.585Z,1177.2490
2022-12-06T01:53:37.201Z,1170.0260
2022-12-06T01:53:48.263Z,1171.0530
2022-12-06T01:53:59.356Z,1172.0811
2022-12-06T01:54:10.428Z,1170.0260
2022-12-06T01:54:21.480Z,1171.0530
2022-12-06T01:54:32.534Z,1175.1760
2022-12-06T01:54:43.614Z,1172.0811
2022-12-06T01:54:54.691Z,1175.1760
2022-12-06T01:55:05.750Z,1176.2111
2022-12-06T01:55:16.813Z,1167.9790
2022-12-06T01:55:27.891Z,1175.1760
2022-12-06T01:55:38.981Z,1171.0530
2022-12-06T01:55:50.051Z,1169.0020
2022-12-06T01:56:01.123Z,1173.1110
2022-12-06T01:56:12.201Z,1173.1110
2022-12-06T01:56:23.235Z,1171.0530
2022-12-06T01:56:34.311Z,1172.0811
2022-12-06T01:56:45.392Z,1175.1760
2022-12-06T01:56:56.475Z,1175.1760
2022-12-06T01:57:07.556Z,1176.2111
2022-12-06T01:57:18.661Z,1166.9580
2022-12-06T01:57:29.724Z,1175.1760
2022-12-06T01:57:40.800Z,1172.0811
2022-12-06T01:57:51.886Z,1171.0530
2022-12-06T01:58:02.965Z,1176.2111
2022-12-06T01:58:14.044Z,1173.1110
2022-12-06T01:58:25.128Z,1173.1110
2022-12-06T01:58:36.194Z,1177.2490
2022-12-06T01:58:47.291Z,1172.0811
2022-12-06T01:58:58.365Z,1173.1110
2022-12-06T01:59:09.441Z,1176.2111
2022-12-06T01:59:20.523Z,1175.1760
2022-12-06T01:59:31.587Z,1171.0530
2022-12-06T01:59:42.662Z,1177.2490
2022-12-06T01:59:53.714Z,1174.1420
2022-12-06T02:00:04.794Z,1173.1110
2022-12-06T02:00:15.881Z,1175.1760
2022-12-06T02:00:26.955Z,1175.1760
2022-12-06T02:00:38.035Z,1175.1760
2022-12-06T02:00:49.116Z,1169.0020
2022-12-06T02:01:00.226Z,1174.1420
2022-12-06T02:01:11.413Z,1175.1760
2022-12-06T02:01:22.535Z,1173.1110
2022-12-06T02:01:33.760Z,1170.0260
2022-12-06T02:01:44.898Z,1179.3290
2022-12-06T02:01:56.089Z,1170.0260
2022-12-06T02:02:07.265Z,1175.1760
2022-12-06T02:02:18.414Z,1177.2490
2022-12-06T02:02:29.573Z,1173.1110
2022-12-06T02:02:40.703Z,1177.2490
2022-12-06T02:02:51.850Z,1175.1760
2022-12-06T02:03:03.025Z,1176.2111
2022-12-06T02:03:14.094Z,1172.0811
2022-12-06T02:03:25.145Z,1174.1420
2022-12-06T02:03:36.195Z,1180.3710
2022-12-06T02:03:47.265Z,1177.2490
2022-12-06T02:03:58.335Z,1179.3290
2022-12-06T02:04:09.404Z,1173.1110
2022-12-06T02:04:20.461Z,1175.1760
2022-12-06T02:04:31.525Z,1175.1760
2022-12-06T02:04:42.572Z,1172.0811
2022-12-06T02:04:53.649Z,1177.2490
2022-12-06T02:05:04.714Z,1178.2880
2022-12-06T02:05:15.791Z,1177.2490
2022-12-06T02:05:26.854Z,1179.3290
2022-12-06T02:05:40.938Z,1182.4620
2022-12-06T02:05:52.245Z,1175.1760
2022-12-06T02:06:03.311Z,1166.9580
2022-12-06T02:06:14.375Z,1177.2490
2022-12-06T02:06:25.446Z,1178.2880
2022-12-06T02:06:36.514Z,1175.1760
2022-12-06T02:06:47.587Z,1186.6670
2022-12-06T02:06:58.632Z,1178.2880
2022-12-06T02:07:09.691Z,1177.2490
2022-12-06T02:07:20.730Z,1180.3710